Time;durP1;ratioP1;P1;durP2;ratioP2;P2;SDS_P1;SDS_P2;PMS_P1;PMS_P2;Temp;Humidity;BMP_temperature;BMP_pressure;BME280_temperature;BME280_humidity;BME280_pressure;Samples;Min_cycle;Max_cycle;Signal;HPM_P1;HPM_P2
2023/08/17 00:01:34;;;;;;;0.08;0.08;;;;;;;19.20;54.25;101569.09;7352242;19;20006;-57
2023/08/17 00:03:59;;;;;;;0.00;0.00;;;;;;;19.12;54.63;101558.00;7348577;19;20022;-57
2023/08/17 00:06:25;;;;;;;0.10;0.10;;;;;;;19.17;54.64;101569.25;7351713;19;20765;-57
2023/08/17 00:08:51;;;;;;;0.10;0.10;;;;;;;19.05;55.11;101544.16;7346147;19;20021;-57
2023/08/17 00:11:16;;;;;;;0.00;0.00;;;;;;;19.14;54.84;101558.78;7349191;19;20014;-56
2023/08/17 00:13:42;;;;;;;0.00;0.00;;;;;;;19.13;55.32;101562.38;7349604;19;20049;-57
2023/08/17 00:16:07;;;;;;;0.03;0.03;;;;;;;19.11;54.99;101558.91;7346745;19;20010;-57
2023/08/17 00:18:32;;;;;;;0.00;0.00;;;;;;;19.09;55.12;101552.84;7348830;19;20018;-55
2023/08/17 00:20:59;;;;;;;0.00;0.00;;;;;;;19.09;54.85;101566.09;7345884;19;20019;-57
2023/08/17 00:23:25;;;;;;;0.10;0.10;;;;;;;19.07;55.35;101562.66;7356311;19;20077;-57
2023/08/17 00:25:50;;;;;;;0.10;0.10;;;;;;;19.04;55.18;101557.47;7358339;19;20006;-56
2023/08/17 00:28:16;;;;;;;0.00;0.00;;;;;;;19.03;55.55;101566.34;7353268;19;20763;-56
2023/08/17 00:30:41;;;;;;;0.00;0.00;;;;;;;19.00;55.10;101566.47;7357802;19;20006;-56
2023/08/17 00:33:07;;;;;;;0.00;0.00;;;;;;;18.98;55.50;101563.91;7351589;19;20528;-57
2023/08/17 00:35:32;;;;;;;0.10;0.10;;;;;;;18.93;55.59;101561.47;7355891;19;20022;-57
2023/08/17 00:37:58;;;;;;;0.00;0.00;;;;;;;18.91;55.58;101562.47;7356927;19;20032;-58
2023/08/17 00:40:23;;;;;;;0.00;0.00;;;;;;;18.86;55.23;101565.31;7351760;19;20033;-57
2023/08/17 00:42:49;;;;;;;0.00;0.00;;;;;;;18.85;55.66;101560.94;7355684;19;20125;-57
2023/08/17 00:45:15;;;;;;;0.10;0.10;;;;;;;18.71;55.38;101538.66;7353403;19;20090;-57
2023/08/17 00:47:41;;;;;;;0.10;0.10;;;;;;;18.78;55.40;101556.84;7355848;19;20037;-57
2023/08/17 00:50:07;;;;;;;0.10;0.10;;;;;;;18.73;55.11;101548.25;7354559;19;20735;-57
2023/08/17 00:52:33;;;;;;;0.00;0.00;;;;;;;18.71;54.81;101549.25;7354232;19;20018;-56
2023/08/17 00:55:01;;;;;;;0.00;0.00;;;;;;;18.67;54.62;101543.19;7353811;19;20602;-57
2023/08/17 00:57:27;;;;;;;0.00;0.00;;;;;;;18.61;54.84;101538.16;7354101;19;20022;-56
2023/08/17 00:59:53;;;;;;;0.00;0.00;;;;;;;18.49;54.88;101530.72;7354387;19;20617;-56
2023/08/17 01:02:19;;;;;;;0.00;0.00;;;;;;;18.51;55.09;101542.97;7352966;19;20006;-55
2023/08/17 01:04:44;;;;;;;0.00;0.00;;;;;;;18.47;54.97;101537.88;7354800;19;20018;-56
2023/08/17 01:07:10;;;;;;;0.10;0.10;;;;;;;18.42;55.07;101538.94;7355089;19;20470;-56
2023/08/17 01:09:36;;;;;;;0.00;0.00;;;;;;;18.38;54.97;101536.47;7353842;19;20387;-55
2023/08/17 01:12:31;;;;;;;0.08;0.08;;;;;;;18.35;53.91;101532.19;7354645;19;20030;-56
2023/08/17 01:15:12;;;;;;;0.00;0.00;;;;;;;18.29;54.99;101527.13;7252418;19;2004604;-56
2023/08/17 01:18:05;;;;;;;0.10;0.10;;;;;;;18.24;54.33;101526.47;7356601;19;20972;-57
2023/08/17 01:20:31;;;;;;;0.10;0.10;;;;;;;18.17;55.87;101522.38;7254184;19;2004397;-57
2023/08/17 01:23:05;;;;;;;0.08;0.08;;;;;;;18.14;55.09;101517.19;7358847;19;20011;-57
2023/08/17 01:25:36;;;;;;;0.00;0.00;;;;;;;18.08;56.03;101513.03;7354634;19;20066;-57
2023/08/17 01:28:02;;;;;;;0.00;0.00;;;;;;;18.03;56.09;101515.00;7358346;19;20607;-56
2023/08/17 01:30:28;;;;;;;0.00;0.00;;;;;;;17.99;55.65;101516.03;7353766;19;20013;-57
2023/08/17 01:33:00;;;;;;;0.00;0.00;;;;;;;17.95;55.79;101506.53;7357075;19;20755;-57
2023/08/17 01:35:52;;;;;;;0.00;0.00;;;;;;;17.93;55.65;101512.78;7359079;19;20819;-58
2023/08/17 01:38:21;;;;;;;0.00;0.00;;;;;;;17.87;56.25;101506.84;7255937;19;2004344;-59
2023/08/17 01:40:49;;;;;;;0.00;0.00;;;;;;;17.84;56.46;101508.72;7354924;19;20021;-58
2023/08/17 01:43:16;;;;;;;0.05;0.05;;;;;;;17.80;56.30;101508.00;7352552;19;20110;-57
2023/08/17 01:45:42;;;;;;;0.10;0.10;;;;;;;17.76;56.39;101501.13;7355866;19;20015;-58
2023/08/17 01:48:07;;;;;;;0.00;0.00;;;;;;;17.69;56.29;101499.63;7355253;19;20033;-58
2023/08/17 01:50:33;;;;;;;0.08;0.08;;;;;;;17.69;56.50;101507.56;7357015;19;20091;-59
2023/08/17 01:52:58;;;;;;;0.00;0.00;;;;;;;17.66;56.24;101502.38;7355505;19;20046;-56
2023/08/17 01:55:23;;;;;;;0.00;0.00;;;;;;;17.62;56.58;101503.41;7357833;19;21131;-57
2023/08/17 01:57:49;;;;;;;0.00;0.00;;;;;;;17.58;56.23;101500.03;7349362;19;20014;-57
2023/08/17 02:00:15;;;;;;;0.00;0.00;;;;;;;17.56;56.68;101503.66;7345818;19;20014;-60
2023/08/17 02:02:41;;;;;;;0.03;0.03;;;;;;;17.53;56.82;101503.75;7354503;19;20034;-57
2023/08/17 02:05:07;;;;;;;0.00;0.00;;;;;;;17.50;56.96;101496.84;7353999;19;20014;-58
2023/08/17 02:07:32;;;;;;;0.05;0.05;;;;;;;17.47;56.67;101488.16;7353506;19;21157;-57
2023/08/17 02:09:58;;;;;;;0.05;0.05;;;;;;;17.41;56.71;101489.25;7355628;19;20007;-58
2023/08/17 02:12:23;;;;;;;0.00;0.00;;;;;;;17.40;56.82;101494.63;7355644;19;20053;-57
2023/08/17 02:14:48;;;;;;;0.05;0.05;;;;;;;17.38;56.86;101500.78;7353536;19;20010;-56
2023/08/17 02:17:16;;;;;;;0.00;0.00;;;;;;;17.34;56.92;101488.66;7349154;19;20026;-58
2023/08/17 02:19:41;;;;;;;;;;;;;;;17.35;55.05;101493.00;7348863;19;20597;-58
2023/08/17 02:22:07;;;;;;;0.00;0.00;;;;;;;17.31;56.98;101490.53;7355851;19;19919;-57
2023/08/17 02:24:32;;;;;;;0.00;0.00;;;;;;;17.29;57.08;101493.25;7352352;19;20043;-57
2023/08/17 02:26:58;;;;;;;0.00;0.00;;;;;;;17.26;56.99;101495.13;7352019;19;20015;-57
2023/08/17 02:29:23;;;;;;;0.10;0.10;;;;;;;17.22;57.28;101494.38;7350352;19;20013;-57
2023/08/17 02:31:48;;;;;;;0.00;0.00;;;;;;;17.13;57.07;101484.16;7353547;19;20081;-56
2023/08/17 02:34:14;;;;;;;0.03;0.03;;;;;;;17.17;57.15;101498.97;7353383;19;20010;-57
2023/08/17 02:36:39;;;;;;;0.10;0.10;;;;;;;17.15;57.12;101498.19;7353398;19;20616;-57
2023/08/17 02:39:05;;;;;;;0.05;0.05;;;;;;;17.12;57.53;101499.13;7353236;19;20019;-58
2023/08/17 02:41:31;;;;;;;0.00;0.00;;;;;;;17.10;57.24;101500.13;7355765;19;20049;-56
2023/08/17 02:43:57;;;;;;;0.10;0.10;;;;;;;16.99;57.46;101489.97;7341877;19;20011;-58
2023/08/17 02:46:22;;;;;;;0.00;0.00;;;;;;;17.06;57.17;101498.50;7354218;19;20815;-57
2023/08/17 02:48:48;;;;;;;0.00;0.00;;;;;;;17.04;57.24;101497.72;7351800;19;20014;-58
2023/08/17 02:51:13;;;;;;;0.00;0.00;;;;;;;17.01;57.27;101501.31;7351163;19;20010;-57
2023/08/17 02:53:39;;;;;;;0.00;0.00;;;;;;;16.99;57.39;101491.75;7347888;19;20078;-55
2023/08/17 02:56:05;;;;;;;0.00;0.00;;;;;;;16.96;57.55;101490.06;7322482;19;20015;-57
2023/08/17 02:58:30;;;;;;;0.08;0.08;;;;;;;16.95;57.43;101484.84;7324130;19;20169;-57
2023/08/17 03:00:55;;;;;;;0.00;0.00;;;;;;;16.93;57.26;101486.69;7350977;19;20078;-57
2023/08/17 03:03:21;;;;;;;0.00;0.00;;;;;;;16.91;57.47;101485.88;7350623;19;20091;-57
2023/08/17 03:05:46;;;;;;;0.00;0.00;;;;;;;16.79;57.25;101466.94;7353433;19;21129;-57
2023/08/17 03:08:12;;;;;;;0.00;0.00;;;;;;;16.85;57.42;101473.78;7350518;19;20857;-56
2023/08/17 03:10:38;;;;;;;0.00;0.00;;;;;;;16.84;57.14;101470.28;7352967;19;20011;-56
2023/08/17 03:13:03;;;;;;;0.00;0.00;;;;;;;16.81;57.65;101462.47;7353021;19;20022;-56
2023/08/17 03:15:29;;;;;;;0.03;0.03;;;;;;;16.80;57.73;101465.19;7353806;19;20749;-55
2023/08/17 03:17:55;;;;;;;0.00;0.00;;;;;;;16.78;57.49;101461.75;7344329;19;20053;-56
2023/08/17 03:20:20;;;;;;;0.00;0.00;;;;;;;16.76;57.47;101453.88;7327226;19;20023;-56
2023/08/17 03:22:45;;;;;;;0.00;0.00;;;;;;;16.74;57.95;101445.16;7352546;19;20488;-56
2023/08/17 03:25:11;;;;;;;0.10;0.10;;;;;;;16.73;57.69;101447.88;7350976;19;20015;-56
2023/08/17 03:27:36;;;;;;;0.00;0.00;;;;;;;16.70;57.70;101438.22;7348306;19;20022;-57
2023/08/17 03:30:03;;;;;;;0.00;0.00;;;;;;;16.69;57.78;101444.44;7353314;19;20026;-55
2023/08/17 03:32:28;;;;;;;0.00;0.00;;;;;;;16.67;57.94;101445.38;7351563;19;20011;-55
2023/08/17 03:34:54;;;;;;;0.00;0.00;;;;;;;16.59;57.96;101440.41;7349480;19;20125;-57
2023/08/17 03:37:19;;;;;;;0.00;0.00;;;;;;;16.64;57.81;101441.09;7356505;19;20458;-56
2023/08/17 03:39:45;;;;;;;0.00;0.00;;;;;;;16.61;58.15;101439.41;7351614;19;20018;-56
2023/08/17 03:42:10;;;;;;;0.00;0.00;;;;;;;16.61;58.56;101433.28;7351233;19;20002;-57
2023/08/17 03:44:35;;;;;;;0.10;0.10;;;;;;;16.59;58.15;101432.50;7352218;19;20102;-57
2023/08/17 03:47:01;;;;;;;0.00;0.00;;;;;;;16.57;58.42;101437.84;7348890;19;20019;-57
2023/08/17 03:49:26;;;;;;;0.00;0.00;;;;;;;16.56;58.28;101435.22;7349772;19;20022;-57
2023/08/17 03:51:52;;;;;;;0.08;0.08;;;;;;;16.55;58.63;101433.50;7354938;19;20022;-57
2023/08/17 03:54:18;;;;;;;0.00;0.00;;;;;;;16.42;58.21;101411.13;7353775;19;20019;-56
2023/08/17 03:56:43;;;;;;;0.00;0.00;;;;;;;16.52;58.26;101431.84;7357073;19;20007;-56
2023/08/17 03:59:09;;;;;;;0.08;0.08;;;;;;;16.52;58.72;101434.47;7360927;19;20033;-56
2023/08/17 04:01:34;;;;;;;0.10;0.10;;;;;;;16.50;58.68;101420.50;7357105;19;20030;-56
2023/08/17 04:03:59;;;;;;;0.00;0.00;;;;;;;16.49;58.37;101436.38;7360424;19;20036;-57
2023/08/17 04:06:25;;;;;;;0.00;0.00;;;;;;;16.47;58.65;101433.78;7361365;19;20017;-57
2023/08/17 04:08:50;;;;;;;0.10;0.10;;;;;;;16.46;58.75;101439.97;7356369;19;20720;-56
2023/08/17 04:11:16;;;;;;;0.10;0.10;;;;;;;16.37;58.54;101426.25;7358929;19;20021;-57
2023/08/17 04:13:41;;;;;;;0.10;0.10;;;;;;;16.42;58.53;101438.34;7359395;19;20010;-57
2023/08/17 04:16:06;;;;;;;0.00;0.00;;;;;;;16.42;58.44;101440.13;7362887;19;20011;-56
2023/08/17 04:18:32;;;;;;;0.00;0.00;;;;;;;16.40;58.39;101447.25;7358661;19;20014;-56
2023/08/17 04:20:57;;;;;;;0.00;0.00;;;;;;;16.34;58.82;101440.41;7359805;19;20014;-56
2023/08/17 04:23:22;;;;;;;0.03;0.03;;;;;;;16.33;58.69;101431.66;7359872;19;20364;-56
2023/08/17 04:25:48;;;;;;;0.00;0.00;;;;;;;16.33;58.64;101439.56;7360576;19;20598;-55
2023/08/17 04:28:14;;;;;;;0.10;0.10;;;;;;;16.31;58.48;101433.44;7357575;19;20872;-56
2023/08/17 04:30:39;;;;;;;0.10;0.10;;;;;;;16.30;58.76;101426.47;7357026;19;20153;-56
2023/08/17 04:33:05;;;;;;;0.03;0.03;;;;;;;16.15;58.53;101408.56;7358032;19;20094;-56
2023/08/17 04:35:30;;;;;;;0.10;0.10;;;;;;;16.25;58.30;101425.75;7355328;19;20045;-55
2023/08/17 04:37:56;;;;;;;0.00;0.00;;;;;;;16.25;58.77;101424.91;7360184;19;20010;-57
2023/08/17 04:40:21;;;;;;;0.00;0.00;;;;;;;16.22;58.38;101420.63;7358515;19;20040;-55
2023/08/17 04:42:47;;;;;;;0.00;0.00;;;;;;;16.19;58.74;101410.16;7352522;19;20011;-56
2023/08/17 04:45:12;;;;;;;0.10;0.10;;;;;;;16.17;58.44;101414.66;7358429;19;20018;-57
2023/08/17 04:47:38;;;;;;;0.10;0.10;;;;;;;16.16;58.56;101410.25;7357529;19;20384;-56
2023/08/17 04:50:04;;;;;;;0.00;0.00;;;;;;;16.14;58.63;101405.97;7354663;19;20003;-57
2023/08/17 04:52:29;;;;;;;0.00;0.00;;;;;;;16.13;58.56;101404.25;7352194;19;20356;-57
2023/08/17 04:54:55;;;;;;;0.00;0.00;;;;;;;16.07;58.62;101394.81;7360335;19;20133;-56
2023/08/17 04:57:20;;;;;;;0.00;0.00;;;;;;;16.10;58.55;101399.94;7356362;19;20018;-56
2023/08/17 04:59:46;;;;;;;0.00;0.00;;;;;;;16.07;58.43;101400.06;7353283;19;20007;-56
2023/08/17 05:02:11;;;;;;;0.00;0.00;;;;;;;16.08;58.64;101399.16;7359783;19;20018;-57
2023/08/17 05:04:36;;;;;;;0.00;0.00;;;;;;;16.07;57.92;101394.81;7354513;19;20010;-56
2023/08/17 05:07:02;;;;;;;0.00;0.00;;;;;;;16.07;58.49;101400.06;7353578;19;20665;-56
2023/08/17 05:09:27;;;;;;;0.00;0.00;;;;;;;16.06;58.37;101400.97;7360521;19;20011;-55
2023/08/17 05:11:53;;;;;;;0.00;0.00;;;;;;;16.06;58.57;101395.69;7356830;19;20030;-57
2023/08/17 05:14:18;;;;;;;0.08;0.08;;;;;;;16.05;58.54;101391.34;7355392;19;20014;-55
2023/08/17 05:16:44;;;;;;;0.00;0.00;;;;;;;16.04;59.08;101384.34;7354811;19;20010;-56
2023/08/17 05:19:09;;;;;;;0.00;0.00;;;;;;;16.04;58.99;101381.72;7354154;19;20015;-55
2023/08/17 05:21:34;;;;;;;0.05;0.05;;;;;;;15.98;58.76;101379.31;7358674;19;20037;-56
2023/08/17 05:24:00;;;;;;;0.00;0.00;;;;;;;16.04;58.46;101384.34;7357311;19;20049;-57
2023/08/17 05:26:25;;;;;;;0.00;0.00;;;;;;;16.03;58.68;101382.63;7356905;19;20462;-55
2023/08/17 05:28:51;;;;;;;0.00;0.00;;;;;;;16.02;58.56;101383.56;7355441;19;20038;-56
2023/08/17 05:31:16;;;;;;;0.00;0.00;;;;;;;16.02;58.93;101387.06;7358767;19;20031;-57
2023/08/17 05:33:42;;;;;;;0.00;0.00;;;;;;;16.00;58.58;101374.81;7352695;19;20037;-55
2023/08/17 05:36:08;;;;;;;0.10;0.10;;;;;;;15.95;58.91;101376.75;7358128;19;20010;-56
2023/08/17 05:38:33;;;;;;;0.00;0.00;;;;;;;16.03;58.97;101372.09;7352849;19;20006;-56
2023/08/17 05:40:59;;;;;;;0.10;0.10;;;;;;;16.03;58.56;101369.47;7358240;19;20382;-56
2023/08/17 05:43:25;;;;;;;0.10;0.10;;;;;;;16.05;58.93;101376.38;7354696;19;20099;-55
2023/08/17 05:45:51;;;;;;;0.05;0.05;;;;;;;16.06;58.97;101377.25;7352231;19;20006;-56
2023/08/17 05:48:19;;;;;;;0.00;0.00;;;;;;;16.09;59.00;101371.88;7351624;19;20054;-56
2023/08/17 05:50:44;;;;;;;0.08;0.08;;;;;;;15.94;58.86;101356.59;7355118;19;20027;-56
2023/08/17 05:53:10;;;;;;;0.00;0.00;;;;;;;16.09;58.38;101378.00;7355341;19;20002;-55
2023/08/17 05:55:35;;;;;;;0.00;0.00;;;;;;;16.12;58.41;101376.16;7351845;19;20033;-56
2023/08/17 05:58:03;;;;;;;0.00;0.00;;;;;;;16.13;58.32;101373.50;7353724;19;20003;-55
2023/08/17 06:00:29;;;;;;;0.00;0.00;;;;;;;16.15;58.70;101382.19;7356035;19;20646;-56
2023/08/17 06:03:00;;;;;;;0.10;0.10;;;;;;;16.05;58.74;101354.47;7357836;19;20017;-55
2023/08/17 06:05:26;;;;;;;0.00;0.00;;;;;;;16.17;58.35;101364.59;7354011;19;20016;-55
2023/08/17 06:07:52;;;;;;;0.00;0.00;;;;;;;16.21;58.61;101371.44;7356810;19;20010;-56
2023/08/17 06:10:17;;;;;;;0.00;0.00;;;;;;;16.24;58.30;101375.75;7353857;19;20018;-56
2023/08/17 06:12:43;;;;;;;0.00;0.00;;;;;;;16.27;58.34;101373.00;7349770;19;20118;-56
2023/08/17 06:15:09;;;;;;;0.00;0.00;;;;;;;16.28;58.51;101375.59;7353545;19;20022;-57
2023/08/17 06:17:34;;;;;;;0.10;0.10;;;;;;;16.33;58.43;101371.03;7355212;19;20014;-56
2023/08/17 06:20:00;;;;;;;0.00;0.00;;;;;;;16.37;58.04;101360.34;7355191;19;20013;-57
2023/08/17 06:22:25;;;;;;;0.00;0.00;;;;;;;16.42;58.21;101355.75;7355845;19;20007;-56
2023/08/17 06:24:50;;;;;;;0.10;0.10;;;;;;;16.45;58.46;101358.31;7354094;19;20017;-57
2023/08/17 06:27:16;;;;;;;0.00;0.00;;;;;;;16.42;57.87;101350.50;7355854;19;20014;-57
2023/08/17 06:29:41;;;;;;;0.03;0.03;;;;;;;16.48;57.68;101358.22;7350228;19;20018;-56
2023/08/17 06:32:08;;;;;;;0.03;0.03;;;;;;;16.55;57.96;101350.00;7356324;19;20641;-57
2023/08/17 06:34:33;;;;;;;0.00;0.00;;;;;;;16.59;57.72;101351.59;7354076;19;20045;-56
2023/08/17 06:37:01;;;;;;;0.05;0.05;;;;;;;16.65;57.87;101354.94;7356491;19;20742;-56
2023/08/17 06:39:27;;;;;;;0.00;0.00;;;;;;;16.69;57.72;101349.50;7356266;19;20014;-56
2023/08/17 06:41:53;;;;;;;0.00;0.00;;;;;;;16.64;57.54;101332.97;7354096;19;20018;-57
2023/08/17 06:44:19;;;;;;;0.00;0.00;;;;;;;16.78;57.38;101351.81;7353442;19;20030;-56
2023/08/17 06:46:44;;;;;;;0.00;0.00;;;;;;;16.79;57.70;101347.41;7354584;19;20094;-56
2023/08/17 06:49:12;;;;;;;0.00;0.00;;;;;;;16.89;57.51;101337.34;7351943;19;20048;-56
2023/08/17 06:51:37;;;;;;;0.10;0.10;;;;;;;16.90;57.29;101339.06;7354589;19;20018;-56
2023/08/17 06:54:03;;;;;;;0.00;0.00;;;;;;;16.97;57.41;101337.91;7350957;19;20022;-57
2023/08/17 06:56:29;;;;;;;0.00;0.00;;;;;;;17.03;57.42;101346.47;7349143;19;20015;-55
2023/08/17 06:58:54;;;;;;;0.00;0.00;;;;;;;16.97;57.27;101324.72;7352467;19;20809;-57
2023/08/17 07:01:19;;;;;;;0.08;0.08;;;;;;;17.05;57.33;101330.56;7354230;19;20041;-54
2023/08/17 07:03:45;;;;;;;0.00;0.00;;;;;;;17.19;57.07;101345.84;7353895;19;20409;-56
2023/08/17 07:06:10;;;;;;;0.03;0.03;;;;;;;17.12;57.18;101318.81;7351125;19;20023;-54
2023/08/17 07:08:36;;;;;;;0.00;0.00;;;;;;;17.28;57.16;101325.19;7353399;19;20010;-55
2023/08/17 07:11:03;;;;;;;0.00;0.00;;;;;;;17.35;57.05;101321.41;7335532;19;20042;-57
2023/08/17 07:13:28;;;;;;;0.10;0.10;;;;;;;17.40;57.12;101329.13;7345745;19;20362;-55
2023/08/17 07:15:54;;;;;;;0.10;0.10;;;;;;;17.46;56.86;101328.03;7351863;19;20014;-56
2023/08/17 07:18:20;;;;;;;0.10;0.10;;;;;;;17.51;56.88;101320.75;7353220;19;20021;-56
2023/08/17 07:20:45;;;;;;;0.08;0.08;;;;;;;17.58;57.58;101317.78;7353091;19;20014;-57
2023/08/17 07:23:10;;;;;;;0.10;0.10;;;;;;;17.63;57.71;101314.97;7351612;19;20022;-56
2023/08/17 07:25:36;;;;;;;0.00;0.00;;;;;;;17.73;60.53;101313.69;7354952;19;20688;-57
2023/08/17 07:28:01;;;;;;;0.10;0.10;;;;;;;17.82;59.04;101317.72;7351460;19;20018;-57
2023/08/17 07:30:27;;;;;;;0.00;0.00;;;;;;;17.89;59.10;101313.88;7357698;19;20013;-55
2023/08/17 07:32:53;;;;;;;0.10;0.10;;;;;;;17.97;59.48;101308.28;7366965;19;20045;-57
2023/08/17 07:35:18;;;;;;;0.10;0.10;;;;;;;18.03;59.16;101308.00;7369889;19;20022;-56
2023/08/17 07:37:44;;;;;;;0.00;0.00;;;;;;;18.11;59.29;101308.53;7365171;19;20074;-57
2023/08/17 07:40:09;;;;;;;0.00;0.00;;;;;;;18.18;59.16;101307.31;7341334;19;20045;-56
2023/08/17 07:42:36;;;;;;;0.10;0.10;;;;;;;18.12;59.32;101286.44;7365479;19;20014;-56
2023/08/17 07:45:05;;;;;;;0.00;0.00;;;;;;;18.20;60.13;101292.25;7365138;19;20018;-56
2023/08/17 07:47:31;;;;;;;0.00;0.00;;;;;;;18.33;61.41;101309.28;7364836;19;20499;-57
2023/08/17 07:49:57;;;;;;;0.10;0.10;;;;;;;18.38;61.39;101319.63;7365126;19;21261;-57
2023/08/17 07:52:23;;;;;;;0.00;0.00;;;;;;;18.42;62.09;101311.50;7366505;19;20042;-56
2023/08/17 07:54:48;;;;;;;0.00;0.00;;;;;;;18.48;62.56;101309.50;7364460;19;20010;-56
2023/08/17 07:57:14;;;;;;;0.10;0.10;;;;;;;18.53;62.04;101307.50;7360997;19;20438;-55
2023/08/17 07:59:39;;;;;;;0.00;0.00;;;;;;;18.59;61.81;101294.00;7369225;19;20831;-57
2023/08/17 08:02:05;;;;;;;0.10;0.10;;;;;;;18.58;63.14;101290.50;7366418;19;20538;-56
2023/08/17 08:04:30;;;;;;;0.10;0.10;;;;;;;18.68;62.12;101290.94;7367214;19;20015;-56
2023/08/17 08:06:55;;;;;;;0.10;0.10;;;;;;;18.74;61.86;101293.31;7368602;19;20391;-55
2023/08/17 08:09:21;;;;;;;0.10;0.10;;;;;;;18.79;61.30;101293.94;7365171;19;20040;-56
2023/08/17 08:11:46;;;;;;;0.05;0.05;;;;;;;18.83;61.55;101284.94;7365923;19;20566;-56
2023/08/17 08:14:15;;;;;;;0.00;0.00;;;;;;;18.90;61.12;101288.97;7361626;19;20438;-54
2023/08/17 08:16:40;;;;;;;0.10;0.10;;;;;;;18.99;62.03;101285.03;7367679;19;20444;-55
2023/08/17 08:19:05;;;;;;;0.10;0.10;;;;;;;19.07;61.83;101287.34;7365619;19;20013;-56
2023/08/17 08:21:31;;;;;;;0.00;0.00;;;;;;;19.09;62.13;101270.44;7367433;19;20458;-57
2023/08/17 08:23:56;;;;;;;0.03;0.03;;;;;;;19.19;62.48;101286.72;7364319;19;20047;-57
2023/08/17 08:26:22;;;;;;;0.00;0.00;;;;;;;19.25;62.55;101281.13;7368166;19;20022;-56
2023/08/17 08:28:47;;;;;;;0.10;0.10;;;;;;;19.31;62.54;101286.13;7366209;19;20018;-57
2023/08/17 08:31:13;;;;;;;0.00;0.00;;;;;;;19.37;62.19;101277.88;7358303;19;20013;-57
2023/08/17 08:33:38;;;;;;;0.10;0.10;;;;;;;19.41;62.51;101268.84;7363266;19;20003;-56
2023/08/17 08:36:05;;;;;;;0.10;0.10;;;;;;;19.44;63.34;101260.72;7362865;19;20054;-57
2023/08/17 08:38:31;;;;;;;;;;;;;;;19.64;59.25;101272.13;7365069;19;20014;-57
2023/08/17 08:40:56;;;;;;;0.00;0.00;;;;;;;19.61;62.62;101264.34;7362818;19;20486;-57
2023/08/17 08:43:22;;;;;;;0.08;0.08;;;;;;;19.65;62.85;101271.19;7356293;19;20017;-56
2023/08/17 08:45:49;;;;;;;0.00;0.00;;;;;;;19.69;62.72;101275.41;7356053;19;20883;-57
2023/08/17 08:48:17;;;;;;;0.00;0.00;;;;;;;19.74;62.63;101273.38;7359346;19;20010;-56
2023/08/17 08:50:45;;;;;;;0.00;0.00;;;;;;;19.77;63.27;101281.19;7357172;19;20786;-56
2023/08/17 08:53:14;;;;;;;0.03;0.03;;;;;;;19.85;62.55;101268.38;7358880;19;20067;-56
2023/08/17 08:55:48;;;;;;;0.03;0.03;;;;;;;19.87;62.39;101258.56;7352127;19;20014;-57
2023/08/17 08:58:16;;;;;;;0.10;0.10;;;;;;;19.94;63.11;101267.88;7358078;19;20023;-57
2023/08/17 09:00:46;;;;;;;0.00;0.00;;;;;;;20.03;62.79;101263.91;7358293;19;20014;-57
2023/08/17 09:03:12;;;;;;;0.00;0.00;;;;;;;20.15;62.95;101267.69;7356022;19;20023;-56
2023/08/17 09:05:39;;;;;;;0.00;0.00;;;;;;;20.34;63.33;101272.88;7357403;19;20044;-57
2023/08/17 09:08:08;;;;;;;0.10;0.10;;;;;;;20.54;62.91;101266.50;7358157;19;20732;-56
2023/08/17 09:10:33;;;;;;;0.10;0.10;;;;;;;20.74;62.59;101271.56;7360375;19;20007;-57
2023/08/17 09:12:59;;;;;;;0.10;0.10;;;;;;;20.95;62.52;101270.34;7354032;19;20553;-59
2023/08/17 09:15:24;;;;;;;0.10;0.10;;;;;;;21.21;62.06;101275.94;7359547;19;20010;-55
2023/08/17 09:17:50;;;;;;;0.00;0.00;;;;;;;21.47;60.92;101277.09;7344670;19;20015;-57
2023/08/17 09:20:38;;;;;;;0.00;0.00;;;;;;;21.87;59.87;101283.56;7357801;19;20478;-56
2023/08/17 09:23:04;;;;;;;0.00;0.00;;;;;;;21.95;60.15;101268.00;7338394;19;20052;-56
2023/08/17 09:25:31;;;;;;;0.05;0.05;;;;;;;22.31;59.83;101277.34;7355253;19;20038;-57
2023/08/17 09:27:57;;;;;;;0.03;0.03;;;;;;;22.57;59.45;101269.50;7357570;19;20013;-57
2023/08/17 09:30:23;;;;;;;0.00;0.00;;;;;;;22.84;59.59;101272.19;7356386;19;20014;-56
2023/08/17 09:32:49;;;;;;;0.10;0.10;;;;;;;23.14;59.22;101269.34;7357992;19;20026;-58
2023/08/17 09:35:15;;;;;;;0.00;0.00;;;;;;;23.43;58.16;101257.59;7357289;19;20367;-57
2023/08/17 09:37:40;;;;;;;0.10;0.10;;;;;;;23.71;57.97;101267.25;7357463;19;20025;-57
2023/08/17 09:40:06;;;;;;;0.05;0.05;;;;;;;24.00;57.20;101253.72;7359931;19;20014;-58
2023/08/17 09:42:35;;;;;;;0.05;0.05;;;;;;;24.26;57.11;101243.88;7357962;19;20052;-56
2023/08/17 09:45:02;;;;;;;0.10;0.10;;;;;;;24.46;55.84;101245.13;7357294;19;20045;-55
2023/08/17 09:47:27;;;;;;;0.10;0.10;;;;;;;24.67;54.43;101242.72;7356282;19;20014;-57
2023/08/17 09:49:54;;;;;;;0.10;0.10;;;;;;;24.80;54.62;101244.38;7359243;19;20011;-57
2023/08/17 09:52:21;;;;;;;;;;;;;;;25.13;55.17;101236.66;7356257;19;20051;-58
2023/08/17 09:54:47;;;;;;;0.10;0.10;;;;;;;25.06;53.77;101229.09;7357448;19;19926;-55
2023/08/17 09:57:13;;;;;;;0.10;0.10;;;;;;;25.19;52.65;101228.16;7355201;19;20085;-57
2023/08/17 09:59:39;;;;;;;0.07;0.07;;;;;;;25.33;53.21;101236.00;7357692;19;20015;-57
2023/08/17 10:02:21;;;;;;;0.10;0.10;;;;;;;25.61;53.33;101238.25;7355551;19;20545;-56
2023/08/17 10:04:51;;;;;;;0.10;0.10;;;;;;;25.88;51.68;101231.75;7357887;19;20097;-56
2023/08/17 10:07:20;;;;;;;0.00;0.00;;;;;;;26.12;50.20;101235.16;7357186;19;20549;-57
2023/08/17 10:09:49;;;;;;;0.03;0.03;;;;;;;26.34;50.79;101217.38;7345173;19;20870;-56
2023/08/17 10:12:16;;;;;;;0.00;0.00;;;;;;;26.50;49.45;101207.13;7342457;19;20030;-56
2023/08/17 10:15:03;;;;;;;0.00;0.00;;;;;;;27.03;50.47;101225.13;7351938;19;20060;-57
2023/08/17 10:17:35;;;;;;;0.10;0.10;;;;;;;27.09;47.53;101212.09;7328962;19;20757;-58
2023/08/17 10:20:01;;;;;;;0.10;0.10;;;;;;;27.33;46.68;101217.22;7351952;19;20382;-58
2023/08/17 10:22:42;;;;;;;0.07;0.07;;;;;;;27.60;46.91;101216.66;7355666;19;20046;-58
2023/08/17 10:25:11;;;;;;;0.00;0.00;;;;;;;27.72;45.09;101227.34;7352372;19;20016;-58
2023/08/17 10:27:37;;;;;;;0.10;0.10;;;;;;;27.87;45.08;101207.22;7354831;19;20031;-57
2023/08/17 10:30:03;;;;;;;0.10;0.10;;;;;;;27.98;43.58;101196.41;7355883;19;20019;-57
2023/08/17 10:32:29;;;;;;;0.10;0.10;;;;;;;28.27;42.40;101198.31;7353560;19;20026;-57
2023/08/17 10:34:56;;;;;;;0.10;0.10;;;;;;;28.39;42.16;101202.66;7352841;19;20560;-57
2023/08/17 10:37:24;;;;;;;0.00;0.00;;;;;;;28.40;42.27;101194.44;7353569;19;20017;-57
2023/08/17 10:39:50;;;;;;;0.00;0.00;;;;;;;28.56;41.33;101201.97;7350826;19;20498;-56
2023/08/17 10:42:29;;;;;;;0.10;0.10;;;;;;;28.64;41.75;101199.44;7357081;19;20010;-57
2023/08/17 10:44:55;;;;;;;0.10;0.10;;;;;;;28.70;40.12;101201.56;7354384;19;20078;-57
2023/08/17 10:47:27;;;;;;;0.00;0.00;;;;;;;28.83;41.48;101195.88;7355145;19;20010;-57
2023/08/17 10:49:57;;;;;;;0.00;0.00;;;;;;;28.86;41.96;101202.84;7353135;19;20010;-57
2023/08/17 10:52:37;;;;;;;0.00;0.00;;;;;;;28.92;41.04;101196.88;7356989;19;20121;-58
2023/08/17 10:55:09;;;;;;;0.00;0.00;;;;;;;28.89;40.22;101191.78;7331044;19;20010;-56
2023/08/17 10:57:39;;;;;;;0.00;0.00;;;;;;;28.87;39.96;101194.63;7351105;19;20017;-56
2023/08/17 11:00:08;;;;;;;0.05;0.05;;;;;;;28.89;40.22;101186.41;7350897;19;20022;-58
2023/08/17 11:02:33;;;;;;;0.08;0.08;;;;;;;28.87;39.21;101193.78;7329753;19;20112;-56
2023/08/17 11:05:01;;;;;;;0.00;0.00;;;;;;;28.89;39.90;101197.16;7346367;19;20711;-57
2023/08/17 11:07:28;;;;;;;0.00;0.00;;;;;;;28.91;40.58;101189.81;7351624;19;20027;-56
2023/08/17 11:09:54;;;;;;;0.00;0.00;;;;;;;28.96;39.89;101192.97;7351983;19;20006;-54
2023/08/17 11:12:26;;;;;;;0.00;0.00;;;;;;;29.19;41.67;101190.81;7355614;19;20018;-58
2023/08/17 11:14:52;;;;;;;0.00;0.00;;;;;;;29.24;39.26;101174.22;7352369;19;20019;-57
2023/08/17 11:17:20;;;;;;;0.10;0.10;;;;;;;29.56;39.49;101188.22;7353872;19;20040;-58
2023/08/17 11:19:46;;;;;;;0.00;0.00;;;;;;;29.64;38.91;101193.72;7353122;19;20482;-57
2023/08/17 11:22:12;;;;;;;0.10;0.10;;;;;;;29.78;38.52;101203.16;7353657;19;20014;-56
2023/08/17 11:24:40;;;;;;;0.00;0.00;;;;;;;29.93;39.06;101190.06;7345690;19;20024;-58